createdAt,value
2023-04-15T00:00:21.765Z,6.05
2023-04-15T00:03:23.751Z,6.82
2023-04-15T00:06:26.502Z,7.85
2023-04-15T00:09:28.653Z,8.57
2023-04-15T00:12:30.389Z,7.65
2023-04-15T00:15:32.850Z,7.35
2023-04-15T00:18:35.725Z,7.43
2023-04-15T00:21:37.442Z,6.88
2023-04-15T00:24:39.789Z,7.05
2023-04-15T00:27:42.325Z,6.25
2023-04-15T00:30:44.554Z,6.43
2023-04-15T00:33:46.434Z,7.28
2023-04-15T00:36:48.366Z,6.43
2023-04-15T00:39:50.549Z,6.82
2023-04-15T00:42:52.784Z,6.97
2023-04-15T00:45:56.098Z,6.95
2023-04-15T00:48:57.960Z,5.88
2023-04-15T00:51:59.806Z,6.38
2023-04-15T00:55:02.428Z,6.57
2023-04-15T00:58:04.951Z,6.45
2023-04-15T01:01:06.881Z,6.60
2023-04-15T01:04:10.386Z,6.65
2023-04-15T01:07:12.324Z,6.57
2023-04-15T01:10:14.431Z,7.07
2023-04-15T01:13:17.615Z,8.40
2023-04-15T01:16:20.903Z,7.10
2023-04-15T01:19:22.744Z,7.15
2023-04-15T01:22:26.789Z,6.85
2023-04-15T01:25:35.062Z,7.18
2023-04-15T01:28:37.824Z,6.85
2023-04-15T01:31:40.158Z,7.30
2023-04-15T01:34:42.356Z,7.18
2023-04-15T01:37:44.772Z,7.60
2023-04-15T01:40:46.478Z,7.22
2023-04-15T01:43:48.278Z,7.30
2023-04-15T01:46:50.366Z,7.28
2023-04-15T01:49:52.205Z,7.90
2023-04-15T01:52:53.916Z,7.68
2023-04-15T01:55:55.683Z,8.48
2023-04-15T01:58:57.623Z,7.40
2023-04-15T02:02:00.101Z,7.40
2023-04-15T02:05:02.433Z,7.57
2023-04-15T02:08:04.351Z,8.40
2023-04-15T02:11:06.170Z,8.00
2023-04-15T02:14:07.950Z,7.47
2023-04-15T02:17:09.707Z,7.13
2023-04-15T02:20:12.052Z,7.85
2023-04-15T02:23:14.048Z,8.43
2023-04-15T02:26:18.882Z,7.47
2023-04-15T02:29:20.750Z,7.47
2023-04-15T02:37:11.801Z,7.32
2023-04-15T02:40:13.756Z,8.00
2023-04-15T02:43:17.262Z,7.07
2023-04-15T02:46:19.316Z,7.53
2023-04-15T02:49:21.922Z,7.25
2023-04-15T02:52:24.719Z,7.32
2023-04-15T02:55:26.941Z,7.88
2023-04-15T02:58:28.664Z,7.55
2023-04-15T03:01:30.615Z,7.00
2023-04-15T03:04:32.502Z,6.95
2023-04-15T03:07:34.338Z,8.05
2023-04-15T03:10:37.459Z,7.82
2023-04-15T03:13:41.793Z,9.02
2023-04-15T03:16:52.006Z,8.50
2023-04-15T03:19:54.553Z,9.73
2023-04-15T03:22:56.995Z,9.02
2023-04-15T03:26:02.894Z,9.70
2023-04-15T03:29:06.610Z,11.32
2023-04-15T03:32:08.737Z,10.38
2023-04-15T03:35:10.581Z,10.40
2023-04-15T03:38:12.509Z,11.23
2023-04-15T03:41:14.339Z,8.68
2023-04-15T03:44:16.379Z,8.65
2023-04-15T03:47:18.178Z,8.15
2023-04-15T03:50:19.976Z,9.05
2023-04-15T03:53:22.063Z,8.23
2023-04-15T03:56:23.839Z,8.60
2023-04-15T03:59:27.177Z,8.75
2023-04-15T04:02:29.024Z,8.48
2023-04-15T04:05:31.348Z,8.75
2023-04-15T04:08:33.053Z,9.05
2023-04-15T04:11:34.891Z,8.85
2023-04-15T04:14:36.686Z,7.65
2023-04-15T04:17:38.504Z,7.80
2023-04-15T04:20:40.607Z,7.97
2023-04-15T04:23:42.484Z,7.53
2023-04-15T04:26:44.262Z,8.60
2023-04-15T04:29:47.948Z,7.90
2023-04-15T04:32:51.019Z,6.88
2023-04-15T04:35:52.816Z,8.40
2023-04-15T04:38:54.652Z,6.28
2023-04-15T04:41:56.443Z,6.28
2023-04-15T04:44:58.237Z,5.82
2023-04-15T04:48:00.167Z,6.88
2023-04-15T04:51:02.236Z,5.75
2023-04-15T04:54:04.513Z,5.05
2023-04-15T04:57:07.941Z,5.95
2023-04-15T05:00:11.293Z,6.18
2023-04-15T05:03:13.205Z,6.15
2023-04-15T05:06:15.145Z,6.63
2023-04-15T05:09:16.952Z,6.60
2023-04-15T05:12:18.773Z,6.70
2023-04-15T05:15:20.547Z,6.22
2023-04-15T05:18:25.189Z,6.00
2023-04-15T05:21:27.811Z,6.63
2023-04-15T05:24:29.681Z,6.50
2023-04-15T05:27:31.796Z,6.55
2023-04-15T05:30:33.827Z,6.25
2023-04-15T05:33:35.880Z,6.57
2023-04-15T05:36:37.808Z,5.82
2023-04-15T05:39:39.705Z,5.80
2023-04-15T05:42:41.462Z,7.80
2023-04-15T05:45:43.405Z,8.40
2023-04-15T05:48:45.678Z,8.85
2023-04-15T05:51:48.600Z,9.82
2023-04-15T05:54:50.726Z,8.85
2023-04-15T05:57:52.559Z,7.43
2023-04-15T06:00:55.035Z,6.60
2023-04-15T06:03:57.160Z,5.72
2023-04-15T06:06:59.977Z,5.63
2023-04-15T06:10:01.797Z,6.68
2023-04-15T06:13:04.338Z,6.47
2023-04-15T06:16:07.006Z,6.13
2023-04-15T06:19:08.985Z,6.53
2023-04-15T06:22:10.895Z,7.70
2023-04-15T06:25:12.830Z,9.00
2023-04-15T06:28:14.619Z,8.32
2023-04-15T06:31:16.547Z,7.60
2023-04-15T06:34:18.443Z,7.65
2023-04-15T06:37:20.236Z,5.63
2023-04-15T06:40:21.989Z,5.63
2023-04-15T06:43:24.342Z,5.13
2023-04-15T06:46:26.242Z,5.00
2023-04-15T06:49:28.176Z,5.43
2023-04-15T06:52:29.928Z,6.95
2023-04-15T06:55:32.499Z,5.75
2023-04-15T06:58:34.381Z,6.65
2023-04-15T07:01:36.626Z,6.53
2023-04-15T07:04:38.675Z,6.57
2023-04-15T07:07:41.266Z,6.82
2023-04-15T07:10:43.130Z,6.50
2023-04-15T07:13:45.606Z,6.68
2023-04-15T07:16:47.697Z,5.25
2023-04-15T07:19:50.089Z,5.32
2023-04-15T07:22:51.923Z,4.97
2023-04-15T07:25:53.794Z,4.32
2023-04-15T07:28:55.714Z,2.92
2023-04-15T07:31:57.588Z,2.80
2023-04-15T07:34:59.496Z,2.72
2023-04-15T07:38:01.653Z,2.50
2023-04-15T07:41:03.675Z,3.03
2023-04-15T07:44:05.590Z,2.63
2023-04-15T07:47:08.454Z,2.38
2023-04-15T07:50:13.618Z,2.30
2023-04-15T07:53:16.665Z,2.25
2023-04-15T07:56:18.387Z,2.15
2023-04-15T07:59:20.320Z,2.22
2023-04-15T08:02:22.564Z,2.60
2023-04-15T08:05:24.888Z,2.35
2023-04-15T08:08:27.373Z,2.25
2023-04-15T08:11:29.172Z,2.50
2023-04-15T08:14:31.669Z,2.05
2023-04-15T08:17:34.193Z,1.98
2023-04-15T08:20:37.880Z,2.25
2023-04-15T08:23:39.909Z,2.42
2023-04-15T08:26:42.234Z,2.42
2023-04-15T08:29:45.590Z,2.10
2023-04-15T08:32:47.648Z,2.67
2023-04-15T08:35:49.690Z,2.40
2023-04-15T08:38:51.401Z,2.28
2023-04-15T08:42:05.727Z,2.25
2023-04-15T08:45:10.291Z,2.10
2023-04-15T08:48:16.711Z,1.95
2023-04-15T08:51:19.674Z,1.77
2023-04-15T08:54:21.590Z,1.77
2023-04-15T08:57:28.938Z,2.05
2023-04-15T09:00:31.255Z,1.60
2023-04-15T09:03:33.797Z,1.60
2023-04-15T09:06:35.753Z,1.75
2023-04-15T09:09:40.329Z,1.30
2023-04-15T09:12:42.122Z,1.60
2023-04-15T09:15:45.568Z,1.45
2023-04-15T09:18:47.305Z,1.50
2023-04-15T09:21:49.214Z,1.58
2023-04-15T09:24:51.607Z,1.60
2023-04-15T09:27:56.037Z,1.60
2023-04-15T09:30:59.259Z,1.75
2023-04-15T09:34:03.015Z,1.80
2023-04-15T09:37:05.015Z,1.90
2023-04-15T09:40:10.146Z,1.70
2023-04-15T09:43:14.524Z,1.35
2023-04-15T09:46:16.364Z,1.35
2023-04-15T09:49:18.692Z,1.70
2023-04-15T09:52:20.689Z,1.90
2023-04-15T09:55:23.769Z,1.90
2023-04-15T09:58:29.693Z,1.77
2023-04-15T10:01:32.364Z,1.98
2023-04-15T10:04:40.955Z,1.50
2023-04-15T10:07:43.552Z,1.65
2023-04-15T10:10:46.753Z,1.30
2023-04-15T10:13:50.645Z,1.70
2023-04-15T10:16:56.534Z,1.40
2023-04-15T10:20:02.270Z,2.10
2023-04-15T10:23:06.362Z,1.83
2023-04-15T10:26:12.454Z,1.95
2023-04-15T10:40:45.451Z,2.35
2023-04-15T10:43:51.929Z,3.10
2023-04-15T10:46:53.920Z,5.30
2023-04-15T10:50:01.318Z,3.20
2023-04-15T10:53:05.022Z,2.17
2023-04-15T10:56:07.218Z,3.42
2023-04-15T10:59:09.751Z,4.03
2023-04-15T11:02:14.458Z,5.93
2023-04-15T11:05:18.017Z,4.32
2023-04-15T11:08:20.641Z,4.70
2023-04-15T11:11:22.965Z,4.20
2023-04-15T11:14:26.303Z,4.82
2023-04-15T11:17:31.435Z,5.68
2023-04-15T11:20:34.095Z,7.65
2023-04-15T11:23:40.776Z,7.05
2023-04-15T11:26:42.600Z,8.35
2023-04-15T11:29:44.346Z,9.50
2023-04-15T11:32:46.200Z,11.35
2023-04-15T11:35:48.488Z,6.65
2023-04-15T11:38:50.378Z,6.00
2023-04-15T11:41:52.106Z,6.53
2023-04-15T11:45:07.643Z,13.77
2023-04-15T11:48:11.125Z,7.15
2023-04-15T11:51:14.020Z,3.83
2023-04-15T11:54:19.305Z,3.50
2023-04-15T11:57:21.035Z,3.85
2023-04-15T12:00:23.174Z,6.60
2023-04-15T12:03:27.881Z,5.97
2023-04-15T12:06:38.922Z,2.90
2023-04-15T12:09:41.055Z,4.70
2023-04-15T12:12:42.768Z,4.00
2023-04-15T12:15:44.848Z,2.70
2023-04-15T12:18:47.346Z,2.55
2023-04-15T12:21:50.475Z,2.33
2023-04-15T12:24:57.408Z,2.83
2023-04-15T12:27:59.455Z,3.35
2023-04-15T12:31:07.765Z,2.92
2023-04-15T12:34:09.526Z,3.47
2023-04-15T12:37:13.777Z,2.80
2023-04-15T12:40:15.674Z,2.60
2023-04-15T12:43:17.440Z,2.30
2023-04-15T12:46:19.359Z,3.10
2023-04-15T12:49:22.093Z,2.30
2023-04-15T12:52:24.492Z,1.80
2023-04-15T12:55:26.241Z,1.83
2023-04-15T12:58:28.497Z,1.52
2023-04-15T13:01:30.587Z,1.70
2023-04-15T13:04:32.407Z,1.58
2023-04-15T13:07:34.170Z,1.55
2023-04-15T13:10:39.173Z,1.63
2023-04-15T13:13:41.153Z,1.60
2023-04-15T13:16:43.359Z,1.60
2023-04-15T13:19:45.083Z,1.73
2023-04-15T13:22:46.866Z,1.70
2023-04-15T13:25:48.558Z,1.88
2023-04-15T13:28:50.403Z,2.38
2023-04-15T13:31:52.276Z,3.70
2023-04-15T13:34:54.927Z,4.20
2023-04-15T13:37:56.734Z,3.83
2023-04-15T13:40:58.743Z,3.38
2023-04-15T13:44:00.708Z,3.00
2023-04-15T13:47:03.788Z,2.90
2023-04-15T13:50:06.711Z,2.45
2023-04-15T13:53:08.456Z,2.55
2023-04-15T13:56:10.897Z,2.42
2023-04-15T13:59:13.275Z,2.97
2023-04-15T14:02:15.115Z,2.70
2023-04-15T14:05:17.179Z,2.63
2023-04-15T14:08:18.894Z,2.22
2023-04-15T14:11:20.721Z,2.03
2023-04-15T14:14:22.529Z,1.70
2023-04-15T14:17:24.346Z,1.90
2023-04-15T14:20:26.058Z,1.80
2023-04-15T14:23:28.989Z,1.92
2023-04-15T14:26:30.751Z,1.83
2023-04-15T14:29:32.493Z,2.30
2023-04-15T14:32:34.282Z,2.25
2023-04-15T14:35:36.362Z,2.50
2023-04-15T14:38:41.201Z,3.40
2023-04-15T14:41:42.865Z,3.55
2023-04-15T14:44:45.011Z,3.03
2023-04-15T14:47:47.364Z,1.85
2023-04-15T14:50:49.402Z,1.92
2023-04-15T14:53:51.156Z,2.70
2023-04-15T14:56:52.984Z,2.47
2023-04-15T14:59:56.781Z,2.83
2023-04-15T15:02:58.864Z,3.05
2023-04-15T15:06:00.701Z,3.30
2023-04-15T15:09:02.590Z,2.90
2023-04-15T15:12:04.438Z,4.40
2023-04-15T15:15:15.729Z,3.20
2023-04-15T15:18:21.654Z,3.63
2023-04-15T15:21:23.977Z,3.05
2023-04-15T15:24:25.666Z,5.68
2023-04-15T15:27:27.449Z,3.47
2023-04-15T15:30:29.221Z,3.25
2023-04-15T15:33:32.015Z,4.05
2023-04-15T15:36:33.835Z,4.22
2023-04-15T15:39:36.140Z,5.10
2023-04-15T15:42:38.149Z,4.80
2023-04-15T15:45:40.918Z,3.78
2023-04-15T15:48:42.705Z,3.97
2023-04-15T15:51:45.977Z,3.60
2023-04-15T15:54:48.138Z,3.50
2023-04-15T15:57:50.105Z,4.10
2023-04-15T16:00:53.843Z,4.25
2023-04-15T16:03:55.788Z,3.72
2023-04-15T16:06:57.670Z,4.45
2023-04-15T16:09:59.363Z,4.60
2023-04-15T16:13:02.040Z,4.35
2023-04-15T16:16:05.180Z,4.65
2023-04-15T16:19:07.273Z,5.50
2023-04-15T16:22:09.041Z,4.93
2023-04-15T16:25:11.347Z,4.75
2023-04-15T16:28:25.685Z,3.58
2023-04-15T16:31:28.738Z,3.20
2023-04-15T16:34:30.677Z,2.83
2023-04-15T16:37:33.375Z,2.60
2023-04-15T16:40:35.130Z,3.00
2023-04-15T16:43:36.974Z,3.17
2023-04-15T16:46:40.803Z,3.55
2023-04-15T16:49:42.843Z,4.22
2023-04-15T16:52:44.678Z,3.85
2023-04-15T16:55:46.453Z,4.40
2023-04-15T16:58:48.278Z,4.47
2023-04-15T17:01:50.461Z,3.58
2023-04-15T17:04:52.281Z,4.30
2023-04-15T17:07:54.052Z,4.63
2023-04-15T17:10:57.684Z,4.40
2023-04-15T17:13:59.417Z,4.70
2023-04-15T17:17:01.741Z,5.05
2023-04-15T17:20:04.255Z,5.05
2023-04-15T17:23:06.116Z,4.82
2023-04-15T17:26:08.086Z,5.20
2023-04-15T17:29:10.007Z,5.20
2023-04-15T17:32:11.729Z,5.90
2023-04-15T17:35:13.459Z,6.28
2023-04-15T17:38:15.560Z,12.05
2023-04-15T17:41:17.384Z,8.15
2023-04-15T17:44:20.280Z,8.52
2023-04-15T17:47:23.151Z,5.50
2023-04-15T17:50:24.878Z,4.90
2023-04-15T17:53:27.691Z,4.40
2023-04-15T17:56:29.685Z,4.05
2023-04-15T17:59:31.577Z,4.03
2023-04-15T18:02:36.117Z,4.85
2023-04-15T18:05:41.355Z,5.63
2023-04-15T18:08:44.327Z,5.93
2023-04-15T18:11:48.477Z,6.15
2023-04-15T18:14:50.534Z,8.20
2023-04-15T18:17:52.828Z,6.60
2023-04-15T18:20:54.619Z,6.00
2023-04-15T18:23:56.393Z,6.57
2023-04-15T18:26:59.145Z,6.22
2023-04-15T18:30:01.064Z,5.97
2023-04-15T18:33:02.916Z,5.97
2023-04-15T18:36:04.740Z,6.22
2023-04-15T18:39:06.641Z,6.32
2023-04-15T18:42:08.620Z,6.80
2023-04-15T18:45:10.993Z,6.72
2023-04-15T18:48:14.351Z,7.47
2023-04-15T18:51:16.312Z,6.60
2023-04-15T18:54:18.138Z,5.57
2023-04-15T18:57:19.931Z,5.35
2023-04-15T19:00:26.422Z,5.88
2023-04-15T19:03:29.169Z,4.95
2023-04-15T19:06:30.994Z,4.47
2023-04-15T19:09:32.913Z,4.93
2023-04-15T19:12:36.573Z,5.30
2023-04-15T19:15:38.351Z,5.97
2023-04-15T19:18:40.090Z,6.20
2023-04-15T19:21:42.361Z,5.32
2023-04-15T19:24:44.362Z,5.35
2023-04-15T19:27:46.150Z,5.78
2023-04-15T19:30:47.956Z,5.90
2023-04-15T19:33:49.698Z,6.32
2023-04-15T19:36:51.481Z,6.55
2023-04-15T19:39:54.740Z,6.80
2023-04-15T19:42:56.490Z,6.97
2023-04-15T19:45:58.949Z,7.72
2023-04-15T19:49:01.458Z,7.60
2023-04-15T19:52:04.432Z,6.50
2023-04-15T19:55:06.583Z,6.03
2023-04-15T19:58:08.348Z,5.70
2023-04-15T20:01:10.096Z,5.70
2023-04-15T20:04:12.039Z,5.68
2023-04-15T20:07:14.045Z,5.25
2023-04-15T20:10:15.925Z,6.30
2023-04-15T20:13:17.621Z,5.65
2023-04-15T20:16:19.355Z,5.28
2023-04-15T20:19:22.238Z,4.90
2023-04-15T20:22:24.065Z,5.53
2023-04-15T20:25:26.011Z,5.10
2023-04-15T20:28:27.848Z,5.78
2023-04-15T20:31:29.685Z,5.43
2023-04-15T20:34:31.806Z,5.25
2023-04-15T20:37:33.952Z,5.63
2023-04-15T20:40:36.437Z,5.22
2023-04-15T20:43:38.185Z,5.70
2023-04-15T20:46:39.977Z,5.95
2023-04-15T20:49:41.716Z,5.93
2023-04-15T20:52:43.480Z,6.05
2023-04-15T20:55:45.648Z,6.13
2023-04-15T20:58:47.437Z,5.93
2023-04-15T21:01:49.298Z,4.68
2023-04-15T21:04:51.888Z,4.72
2023-04-15T21:07:54.295Z,4.53
2023-04-15T21:10:56.881Z,4.60
2023-04-15T21:13:58.913Z,4.57
2023-04-15T21:17:07.797Z,4.65
2023-04-15T21:20:11.674Z,4.78
2023-04-15T21:23:13.411Z,4.88
2023-04-15T21:26:15.279Z,4.80
2023-04-15T21:29:17.177Z,4.82
2023-04-15T21:32:19.067Z,5.22
2023-04-15T21:35:21.009Z,4.80
2023-04-15T21:38:23.536Z,5.28
2023-04-15T21:41:25.782Z,5.00
2023-04-15T21:44:27.594Z,5.22
2023-04-15T21:47:29.393Z,5.35
2023-04-15T21:50:31.506Z,6.22
2023-04-15T21:53:33.571Z,5.80
2023-04-15T21:56:35.558Z,5.28
2023-04-15T21:59:37.366Z,5.80
2023-04-15T22:02:39.325Z,6.10
2023-04-15T22:05:44.879Z,5.65
2023-04-15T22:08:55.909Z,6.00
2023-04-15T22:11:59.548Z,6.35
2023-04-15T22:15:01.925Z,5.85
2023-04-15T22:18:04.806Z,6.80
2023-04-15T22:21:06.638Z,7.25
2023-04-15T22:24:33.025Z,6.32
2023-04-15T22:27:30.670Z,6.80
2023-04-15T22:30:33.906Z,6.65
2023-04-15T22:33:35.780Z,6.30
2023-04-15T22:36:37.566Z,6.88
2023-04-15T22:39:39.456Z,6.63
2023-04-15T22:42:41.196Z,4.50
2023-04-15T22:45:42.979Z,4.03
2023-04-15T22:48:44.706Z,4.32
2023-04-15T22:51:46.522Z,4.00
2023-04-15T22:54:48.419Z,3.42
2023-04-15T22:57:50.422Z,3.63
2023-04-15T23:00:52.330Z,4.03
2023-04-15T23:03:57.279Z,4.53
2023-04-15T23:07:10.262Z,4.90
2023-04-15T23:10:12.014Z,5.60
2023-04-15T23:13:13.970Z,4.50
2023-04-15T23:16:16.074Z,4.00
2023-04-15T23:19:17.963Z,3.90
2023-04-15T23:22:19.742Z,3.97
2023-04-15T23:25:22.800Z,4.00
2023-04-15T23:28:24.689Z,3.58
2023-04-15T23:31:26.674Z,3.38
2023-04-15T23:34:28.464Z,3.70
2023-04-15T23:37:31.652Z,3.20
2023-04-15T23:40:33.566Z,3.42
2023-04-15T23:43:35.421Z,3.42
2023-04-15T23:46:37.274Z,3.40
2023-04-15T23:49:40.976Z,3.35
2023-04-15T23:52:42.822Z,3.33
2023-04-15T23:55:44.644Z,3.63
2023-04-15T23:58:46.414Z,4.00
